createdAt,value
2018-06-11T00:02:04.321Z,8.20
2018-06-11T00:04:31.910Z,9.00
2018-06-11T00:06:59.593Z,8.33
2018-06-11T00:09:27.210Z,8.83
2018-06-11T00:11:54.766Z,9.73
2018-06-11T00:14:22.493Z,9.97
2018-06-11T00:16:50.035Z,8.83
2018-06-11T00:19:17.550Z,8.67
2018-06-11T00:21:45.144Z,8.20
2018-06-11T00:24:12.778Z,10.53
2018-06-11T00:26:40.378Z,10.33
2018-06-11T00:29:07.960Z,9.43
2018-06-11T00:31:35.805Z,10.47
2018-06-11T00:34:03.350Z,9.50
2018-06-11T00:36:30.916Z,10.10
2018-06-11T00:38:58.554Z,12.57
2018-06-11T00:41:26.222Z,12.53
2018-06-11T00:43:53.983Z,9.97
2018-06-11T00:46:21.540Z,10.07
2018-06-11T00:48:49.160Z,12.77
2018-06-11T00:51:16.760Z,11.30
2018-06-11T00:53:44.447Z,11.50
2018-06-11T00:56:12.114Z,10.27
2018-06-11T00:58:39.788Z,9.57
2018-06-11T01:01:07.559Z,11.70
2018-06-11T01:03:35.108Z,12.70
2018-06-11T01:06:02.765Z,11.40
2018-06-11T01:08:30.440Z,12.10
2018-06-11T01:10:58.023Z,9.67
2018-06-11T01:13:25.693Z,10.33
2018-06-11T01:15:53.259Z,9.20
2018-06-11T01:18:20.820Z,10.10
2018-06-11T01:20:48.476Z,10.00
2018-06-11T01:23:16.167Z,11.50
2018-06-11T01:25:43.794Z,10.07
2018-06-11T01:28:11.550Z,11.80
2018-06-11T01:30:39.405Z,11.17
2018-06-11T01:33:09.177Z,10.87
2018-06-11T01:35:36.768Z,10.67
2018-06-11T01:38:04.279Z,11.37
2018-06-11T01:40:31.905Z,12.03
2018-06-11T01:42:59.556Z,10.80
2018-06-11T01:45:27.173Z,10.97
2018-06-11T01:47:54.964Z,11.37
2018-06-11T01:50:22.613Z,11.80
2018-06-11T01:52:50.370Z,12.37
2018-06-11T01:55:18.061Z,11.70
2018-06-11T01:57:45.643Z,12.03
2018-06-11T02:00:13.225Z,12.63
2018-06-11T02:02:40.876Z,12.47
2018-06-11T02:05:08.478Z,11.90
2018-06-11T02:07:36.073Z,13.13
2018-06-11T02:10:03.882Z,15.77
2018-06-11T02:12:31.578Z,13.40
2018-06-11T02:14:59.132Z,12.37
2018-06-11T02:17:26.857Z,13.43
2018-06-11T02:19:54.475Z,13.37
2018-06-11T02:22:22.134Z,12.97
2018-06-11T02:24:49.852Z,12.60
2018-06-11T02:27:17.395Z,15.00
2018-06-11T02:29:44.997Z,13.07
2018-06-11T02:32:12.563Z,12.67
2018-06-11T02:34:40.178Z,13.27
2018-06-11T02:37:07.789Z,14.07
2018-06-11T02:39:35.341Z,13.53
2018-06-11T02:42:02.985Z,15.60
2018-06-11T02:44:30.535Z,14.13
2018-06-11T02:46:58.206Z,14.73
2018-06-11T02:49:25.881Z,16.37
2018-06-11T02:51:53.514Z,13.47
2018-06-11T02:54:21.172Z,14.47
2018-06-11T02:56:48.803Z,15.97
2018-06-11T02:59:16.703Z,17.10
2018-06-11T03:01:44.505Z,14.77
2018-06-11T03:04:12.098Z,18.17
2018-06-11T03:06:39.701Z,15.83
2018-06-11T03:09:07.908Z,18.47
2018-06-11T03:11:35.494Z,15.43
2018-06-11T03:14:03.134Z,14.43
2018-06-11T03:16:30.690Z,14.53
2018-06-11T03:18:58.400Z,14.70
2018-06-11T03:21:26.483Z,16.33
2018-06-11T03:23:54.166Z,13.70
2018-06-11T03:26:21.744Z,15.37
2018-06-11T03:28:49.445Z,14.80
2018-06-11T03:31:17.187Z,15.50
2018-06-11T03:33:45.043Z,13.17
2018-06-11T03:36:12.920Z,13.30
2018-06-11T03:38:40.668Z,15.13
2018-06-11T03:41:08.273Z,14.53
2018-06-11T03:43:36.025Z,15.30
2018-06-11T03:46:03.636Z,14.20
2018-06-11T03:48:31.425Z,13.57
2018-06-11T03:51:00.275Z,12.50
2018-06-11T03:53:28.179Z,12.80
2018-06-11T03:55:55.791Z,14.10
2018-06-11T03:58:23.455Z,12.83
2018-06-11T04:00:51.099Z,13.07
2018-06-11T04:03:18.689Z,14.30
2018-06-11T04:05:46.404Z,13.57
2018-06-11T04:08:14.033Z,13.33
2018-06-11T04:10:41.692Z,13.90
2018-06-11T04:13:09.291Z,13.33
2018-06-11T04:15:36.924Z,14.03
2018-06-11T04:18:04.490Z,14.50
2018-06-11T04:20:32.183Z,13.13
2018-06-11T04:22:59.989Z,14.37
2018-06-11T04:25:27.678Z,14.13
2018-06-11T04:27:55.556Z,13.47
2018-06-11T04:30:23.533Z,15.10
2018-06-11T04:32:51.278Z,13.20
2018-06-11T04:35:18.898Z,13.23
2018-06-11T04:37:46.545Z,13.10
2018-06-11T04:40:14.115Z,12.60
2018-06-11T04:42:41.744Z,12.33
2018-06-11T04:45:09.453Z,21.80
2018-06-11T04:47:37.224Z,18.80
2018-06-11T04:50:04.891Z,12.50
2018-06-11T04:52:32.570Z,15.23
2018-06-11T04:55:00.295Z,12.60
2018-06-11T04:57:27.870Z,14.00
2018-06-11T04:59:55.493Z,12.23
2018-06-11T05:02:23.207Z,12.93
2018-06-11T05:04:50.742Z,20.10
2018-06-11T05:07:18.567Z,14.00
2018-06-11T05:09:46.235Z,12.57
2018-06-11T05:12:13.875Z,11.90
2018-06-11T05:14:41.458Z,11.63
2018-06-11T05:17:09.177Z,12.50
2018-06-11T05:19:36.809Z,11.10
2018-06-11T05:22:04.445Z,11.70
2018-06-11T05:24:31.997Z,11.73
2018-06-11T05:26:59.615Z,9.23
2018-06-11T05:29:27.226Z,14.00
2018-06-11T05:31:54.805Z,12.43
2018-06-11T05:34:22.573Z,12.23
2018-06-11T05:36:50.182Z,10.50
2018-06-11T05:39:17.813Z,11.43
2018-06-11T05:41:45.436Z,9.17
2018-06-11T05:44:13.059Z,13.10
2018-06-11T05:46:40.636Z,12.90
2018-06-11T05:49:08.273Z,13.03
2018-06-11T05:51:35.938Z,10.90
2018-06-11T05:54:03.551Z,12.30
2018-06-11T05:56:31.195Z,11.17
2018-06-11T05:58:58.856Z,11.43
2018-06-11T06:01:26.545Z,10.13
2018-06-11T06:03:54.207Z,12.20
2018-06-11T06:06:22.765Z,13.23
2018-06-11T06:08:50.457Z,10.53
2018-06-11T06:11:18.074Z,11.17
2018-06-11T06:13:45.745Z,11.77
2018-06-11T06:16:13.346Z,10.77
2018-06-11T06:18:41.091Z,10.07
2018-06-11T06:21:08.642Z,10.63
2018-06-11T06:23:36.208Z,11.77
2018-06-11T06:26:03.803Z,11.30
2018-06-11T06:28:31.452Z,12.55
2018-06-11T06:30:59.015Z,10.28
2018-06-11T06:33:26.644Z,9.33
2018-06-11T06:35:54.143Z,12.88
2018-06-11T06:38:21.901Z,9.25
2018-06-11T06:40:49.567Z,10.40
2018-06-11T06:43:17.120Z,10.78
2018-06-11T06:45:44.804Z,12.10
2018-06-11T06:48:12.453Z,7.90
2018-06-11T06:50:39.985Z,9.08
2018-06-11T06:53:07.818Z,9.78
2018-06-11T06:55:35.453Z,9.63
2018-06-11T06:58:03.184Z,9.18
2018-06-11T07:00:30.691Z,9.15
2018-06-11T07:02:58.223Z,12.40
2018-06-11T07:05:25.753Z,12.43
2018-06-11T07:07:53.448Z,10.70
2018-06-11T07:10:21.193Z,11.80
2018-06-11T07:12:48.851Z,9.05
2018-06-11T07:15:16.446Z,9.28
2018-06-11T07:17:44.035Z,13.38
2018-06-11T07:20:11.703Z,8.13
2018-06-11T07:22:39.197Z,14.28
2018-06-11T07:25:06.897Z,8.90
2018-06-11T07:27:34.496Z,9.90
2018-06-11T07:30:02.119Z,10.55
2018-06-11T07:32:29.920Z,10.78
2018-06-11T07:34:57.692Z,8.15
2018-06-11T07:37:25.411Z,8.10
2018-06-11T07:39:53.075Z,9.60
2018-06-11T07:42:20.834Z,9.40
2018-06-11T07:44:48.425Z,8.15
2018-06-11T07:47:16.110Z,8.13
2018-06-11T07:49:43.663Z,8.08
2018-06-11T07:52:11.311Z,10.80
2018-06-11T07:54:38.886Z,12.50
2018-06-11T07:57:06.436Z,9.35
2018-06-11T07:59:34.014Z,9.60
2018-06-11T08:02:01.612Z,12.70
2018-06-11T08:04:29.211Z,8.03
2018-06-11T08:06:56.720Z,10.13
2018-06-11T08:09:24.390Z,8.90
2018-06-11T08:11:51.999Z,7.72
2018-06-11T08:14:19.623Z,11.53
2018-06-11T08:16:47.214Z,7.37
2018-06-11T08:19:14.872Z,9.83
2018-06-11T08:21:42.567Z,7.65
2018-06-11T08:24:10.105Z,7.58
2018-06-11T08:26:37.743Z,7.70
2018-06-11T08:29:05.388Z,7.37
2018-06-11T08:31:32.995Z,7.90
2018-06-11T08:34:00.525Z,8.20
2018-06-11T08:36:28.252Z,9.50
2018-06-11T08:38:55.894Z,8.18
2018-06-11T08:41:23.547Z,10.88
2018-06-11T08:43:51.146Z,8.55
2018-06-11T08:46:18.778Z,8.68
2018-06-11T08:48:46.405Z,7.80
2018-06-11T08:51:13.957Z,8.30
2018-06-11T08:53:41.686Z,9.80
2018-06-11T08:56:09.371Z,7.45
2018-06-11T08:58:36.945Z,8.38
2018-06-11T09:01:04.653Z,8.03
2018-06-11T09:03:32.275Z,9.78
2018-06-11T09:05:59.845Z,8.23
2018-06-11T09:08:28.819Z,9.13
2018-06-11T09:10:56.606Z,8.40
2018-06-11T09:13:24.204Z,9.25
2018-06-11T09:15:51.859Z,9.05
2018-06-11T09:18:19.524Z,10.20
2018-06-11T09:20:47.054Z,10.03
2018-06-11T09:23:14.771Z,9.20
2018-06-11T09:25:42.483Z,7.10
2018-06-11T09:28:10.170Z,7.78
2018-06-11T09:30:37.865Z,9.28
2018-06-11T09:33:05.533Z,8.00
2018-06-11T09:35:33.246Z,8.15
2018-06-11T09:38:00.946Z,7.47
2018-06-11T09:40:28.689Z,7.00
2018-06-11T09:42:56.277Z,7.37
2018-06-11T09:45:23.925Z,9.13
2018-06-11T09:47:51.571Z,8.13
2018-06-11T09:50:19.333Z,9.58
2018-06-11T09:52:46.936Z,9.15
2018-06-11T09:55:14.582Z,10.48
2018-06-11T09:57:42.343Z,9.83
2018-06-11T10:00:14.222Z,9.28
2018-06-11T10:02:42.845Z,8.98
2018-06-11T10:05:10.411Z,8.15
2018-06-11T10:07:37.996Z,8.50
2018-06-11T10:10:05.680Z,7.53
2018-06-11T10:12:33.365Z,9.35
2018-06-11T10:15:00.890Z,9.78
2018-06-11T10:17:28.409Z,9.55
2018-06-11T10:19:56.071Z,9.80
2018-06-11T10:22:23.706Z,9.33
2018-06-11T10:24:51.437Z,7.85
2018-06-11T10:27:18.975Z,9.00
2018-06-11T10:29:46.607Z,10.90
2018-06-11T10:32:14.270Z,10.65
2018-06-11T10:34:41.924Z,8.85
2018-06-11T10:37:09.497Z,8.63
2018-06-11T10:39:37.164Z,10.63
2018-06-11T10:42:04.762Z,8.68
2018-06-11T10:44:32.512Z,7.37
2018-06-11T10:47:00.196Z,11.33
2018-06-11T10:49:27.815Z,11.53
2018-06-11T10:51:55.394Z,8.85
2018-06-11T10:54:23.014Z,9.00
2018-06-11T10:56:50.624Z,8.55
2018-06-11T10:59:18.376Z,7.92
2018-06-11T11:01:45.998Z,9.75
2018-06-11T11:04:13.618Z,9.33
2018-06-11T11:06:41.509Z,9.50
2018-06-11T11:09:09.061Z,8.40
2018-06-11T11:11:36.728Z,8.30
2018-06-11T11:14:04.307Z,7.53
2018-06-11T11:16:31.900Z,8.88
2018-06-11T11:18:59.508Z,8.88
2018-06-11T11:21:27.037Z,7.85
2018-06-11T11:23:54.796Z,8.68
2018-06-11T11:26:22.359Z,8.65
2018-06-11T11:28:49.995Z,6.50
2018-06-11T11:31:17.597Z,9.03
2018-06-11T11:33:45.262Z,10.65
2018-06-11T11:36:12.854Z,7.08
2018-06-11T11:38:40.439Z,6.95
2018-06-11T11:41:08.096Z,6.47
2018-06-11T11:43:35.681Z,7.87
2018-06-11T11:46:03.298Z,9.75
2018-06-11T11:48:30.981Z,9.43
2018-06-11T11:50:58.475Z,7.92
2018-06-11T11:53:26.063Z,8.28
2018-06-11T11:55:53.562Z,9.20
2018-06-11T11:58:21.170Z,11.57
2018-06-11T12:00:49.006Z,9.50
2018-06-11T12:03:16.527Z,8.30
2018-06-11T12:05:44.030Z,8.05
2018-06-11T12:08:11.733Z,7.75
2018-06-11T12:10:39.415Z,8.48
2018-06-11T12:13:06.980Z,6.25
2018-06-11T12:15:34.561Z,8.20
2018-06-11T12:18:02.157Z,12.58
2018-06-11T12:20:29.723Z,8.68
2018-06-11T12:22:57.444Z,7.33
2018-06-11T12:25:25.043Z,7.90
2018-06-11T12:27:52.606Z,6.60
2018-06-11T12:30:20.388Z,8.10
2018-06-11T12:32:48.120Z,11.55
2018-06-11T12:35:15.669Z,9.80
2018-06-11T12:37:43.237Z,9.25
2018-06-11T12:40:10.908Z,8.85
2018-06-11T12:42:38.661Z,6.55
2018-06-11T12:45:06.450Z,10.93
2018-06-11T12:47:34.072Z,7.65
2018-06-11T12:50:01.784Z,11.83
2018-06-11T12:52:29.377Z,7.90
2018-06-11T12:54:56.934Z,8.15
2018-06-11T12:57:24.692Z,8.93
2018-06-11T12:59:52.387Z,6.87
2018-06-11T13:02:20.031Z,10.35
2018-06-11T13:04:47.705Z,7.40
2018-06-11T13:07:15.632Z,7.20
2018-06-11T13:09:43.213Z,9.98
2018-06-11T13:12:10.812Z,8.68
2018-06-11T13:14:38.526Z,8.30
2018-06-11T13:17:06.756Z,9.30
2018-06-11T13:19:34.514Z,7.70
2018-06-11T13:22:02.200Z,7.50
2018-06-11T13:24:29.841Z,6.47
2018-06-11T13:26:57.642Z,9.23
2018-06-11T13:29:25.312Z,7.85
2018-06-11T13:31:53.016Z,7.55
2018-06-11T13:34:20.661Z,6.25
2018-06-11T13:36:48.243Z,5.70
2018-06-11T13:39:15.877Z,6.72
2018-06-11T13:41:43.467Z,6.22
2018-06-11T13:44:11.015Z,5.72
2018-06-11T13:46:38.636Z,6.53
2018-06-11T13:49:06.146Z,5.65
2018-06-11T13:51:33.838Z,5.55
2018-06-11T13:54:01.430Z,6.47
2018-06-11T13:56:29.102Z,6.50
2018-06-11T13:58:56.738Z,6.33
2018-06-11T14:01:24.382Z,8.10
2018-06-11T14:03:52.148Z,7.25
2018-06-11T14:06:19.810Z,7.60
2018-06-11T14:08:47.511Z,6.92
2018-06-11T14:11:16.194Z,6.90
2018-06-11T14:13:43.798Z,9.93
2018-06-11T14:16:11.424Z,6.08
2018-06-11T14:18:39.120Z,6.58
2018-06-11T14:21:06.685Z,6.12
2018-06-11T14:23:34.442Z,6.60
2018-06-11T14:26:02.016Z,5.80
2018-06-11T14:28:29.614Z,5.60
2018-06-11T14:30:57.375Z,8.45
2018-06-11T14:33:25.076Z,7.55
2018-06-11T14:35:52.738Z,8.38
2018-06-11T14:38:20.396Z,8.98
2018-06-11T14:40:48.157Z,5.70
2018-06-11T14:43:15.741Z,7.20
2018-06-11T14:45:43.509Z,6.78
2018-06-11T14:48:11.064Z,8.25
2018-06-11T14:50:38.722Z,5.40
2018-06-11T14:53:06.457Z,6.50
2018-06-11T14:55:34.188Z,7.28
2018-06-11T14:58:01.927Z,6.03
2018-06-11T15:00:29.508Z,7.35
2018-06-11T15:02:57.254Z,6.58
2018-06-11T15:05:24.969Z,5.78
2018-06-11T15:07:52.681Z,10.20
2018-06-11T15:10:20.246Z,11.12
2018-06-11T15:12:47.889Z,9.53
2018-06-11T15:15:15.537Z,9.33
2018-06-11T15:17:43.306Z,11.75
2018-06-11T15:20:10.902Z,10.03
2018-06-11T15:22:38.496Z,13.13
2018-06-11T15:25:06.106Z,17.48
2018-06-11T15:27:33.750Z,10.65
2018-06-11T15:30:01.410Z,13.32
2018-06-11T15:32:30.122Z,12.45
2018-06-11T15:34:57.855Z,15.88
2018-06-11T15:37:25.562Z,12.60
2018-06-11T15:39:53.297Z,18.65
2018-06-11T15:42:20.918Z,13.78
2018-06-11T15:44:48.477Z,13.10
2018-06-11T15:47:16.091Z,16.27
2018-06-11T15:49:43.810Z,13.83
2018-06-11T15:52:11.424Z,20.53
2018-06-11T15:54:38.969Z,22.73
2018-06-11T15:57:06.752Z,16.33
2018-06-11T15:59:34.372Z,13.43
2018-06-11T16:02:02.011Z,15.63
2018-06-11T16:04:29.595Z,12.23
2018-06-11T16:06:57.340Z,11.63
2018-06-11T16:09:24.906Z,14.03
2018-06-11T16:11:52.725Z,14.53
2018-06-11T16:14:20.488Z,10.73
2018-06-11T16:16:48.147Z,9.30
2018-06-11T16:19:15.951Z,14.17
2018-06-11T16:21:45.837Z,14.53
2018-06-11T16:24:13.520Z,11.67
2018-06-11T16:26:41.214Z,12.47
2018-06-11T16:29:08.777Z,13.67
2018-06-11T16:31:36.551Z,11.00
2018-06-11T16:34:04.145Z,10.30
2018-06-11T16:36:31.764Z,12.97
2018-06-11T16:38:59.452Z,14.83
2018-06-11T16:41:27.097Z,11.43
2018-06-11T16:43:54.672Z,11.67
2018-06-11T16:46:22.278Z,9.87
2018-06-11T16:48:49.924Z,9.57
2018-06-11T16:51:17.708Z,8.60
2018-06-11T16:53:45.449Z,9.93
2018-06-11T16:56:13.080Z,8.47
2018-06-11T16:58:40.649Z,7.93
2018-06-11T17:01:08.558Z,8.07
2018-06-11T17:03:36.182Z,9.27
2018-06-11T17:06:03.845Z,7.83
2018-06-11T17:08:31.700Z,9.03
2018-06-11T17:10:59.725Z,7.67
2018-06-11T17:13:27.306Z,6.87
2018-06-11T17:15:54.909Z,7.70
2018-06-11T17:18:22.518Z,7.07
2018-06-11T17:20:50.175Z,12.87
2018-06-11T17:23:18.951Z,8.87
2018-06-11T17:25:46.603Z,7.37
2018-06-11T17:28:14.157Z,9.83
2018-06-11T17:30:41.883Z,7.37
2018-06-11T17:33:09.610Z,9.33
2018-06-11T17:35:37.238Z,8.03
2018-06-11T17:38:04.850Z,8.60
2018-06-11T17:40:32.416Z,8.83
2018-06-11T17:42:59.993Z,9.40
2018-06-11T17:45:27.667Z,9.20
2018-06-11T17:47:55.393Z,6.30
2018-06-11T17:50:22.982Z,9.53
2018-06-11T17:52:50.789Z,5.23
2018-06-11T17:55:18.479Z,7.00
2018-06-11T17:57:46.178Z,7.67
2018-06-11T18:00:13.907Z,8.73
2018-06-11T18:02:41.568Z,7.73
2018-06-11T18:05:09.286Z,8.83
2018-06-11T18:07:36.950Z,9.77
2018-06-11T18:10:04.736Z,11.27
2018-06-11T18:12:32.415Z,10.53
2018-06-11T18:15:00.011Z,7.03
2018-06-11T18:17:27.605Z,5.37
2018-06-11T18:19:55.126Z,9.43
2018-06-11T18:22:22.786Z,6.40
2018-06-11T18:24:50.358Z,5.47
2018-06-11T18:27:17.965Z,5.33
2018-06-11T18:29:46.718Z,6.70
2018-06-11T18:32:14.292Z,13.13
2018-06-11T18:34:41.813Z,5.03
2018-06-11T18:37:09.412Z,5.33
2018-06-11T18:39:37.073Z,5.20
2018-06-11T18:42:04.868Z,3.03
2018-06-11T18:44:32.518Z,3.67
2018-06-11T18:47:00.303Z,5.63
2018-06-11T18:49:27.974Z,5.97
2018-06-11T18:51:55.693Z,4.67
2018-06-11T18:54:23.284Z,5.50
2018-06-11T18:56:51.964Z,4.40
2018-06-11T18:59:19.612Z,6.50
2018-06-11T19:01:47.288Z,4.67
2018-06-11T19:04:15.012Z,5.23
2018-06-11T19:06:42.601Z,5.97
2018-06-11T19:09:10.366Z,5.43
2018-06-11T19:11:38.036Z,3.97
2018-06-11T19:14:05.721Z,7.50
2018-06-11T19:16:33.427Z,5.23
2018-06-11T19:19:01.039Z,4.07
2018-06-11T19:21:28.669Z,7.23
2018-06-11T19:23:56.529Z,4.23
2018-06-11T19:26:24.238Z,6.43
2018-06-11T19:28:51.820Z,4.40
2018-06-11T19:31:19.528Z,5.83
2018-06-11T19:33:47.173Z,4.67
2018-06-11T19:36:14.934Z,5.47
2018-06-11T19:38:43.618Z,4.03
2018-06-11T19:41:11.222Z,4.80
2018-06-11T19:43:38.806Z,4.27
2018-06-11T19:46:06.400Z,4.27
2018-06-11T19:48:33.997Z,4.13
2018-06-11T19:51:01.809Z,5.23
2018-06-11T19:53:29.495Z,3.73
2018-06-11T19:55:57.205Z,4.13
2018-06-11T19:58:24.993Z,4.40
2018-06-11T20:00:52.763Z,5.47
2018-06-11T20:03:20.535Z,6.17
2018-06-11T20:05:48.137Z,6.00
2018-06-11T20:08:15.797Z,3.57
2018-06-11T20:10:43.336Z,5.80
2018-06-11T20:13:10.976Z,3.60
2018-06-11T20:15:38.749Z,4.90
2018-06-11T20:18:06.367Z,4.63
2018-06-11T20:20:34.060Z,4.70
2018-06-11T20:23:01.628Z,3.33
2018-06-11T20:25:29.131Z,6.07
2018-06-11T20:27:56.757Z,4.23
2018-06-11T20:30:24.276Z,7.37
2018-06-11T20:32:51.888Z,3.93
2018-06-11T20:35:19.539Z,5.27
2018-06-11T20:37:47.251Z,4.23
2018-06-11T20:40:14.822Z,5.30
2018-06-11T20:42:42.517Z,4.23
2018-06-11T20:45:10.154Z,4.93
2018-06-11T20:47:37.876Z,4.03
2018-06-11T20:50:05.636Z,5.20
2018-06-11T20:52:33.508Z,5.93
2018-06-11T20:55:01.316Z,6.07
2018-06-11T20:57:29.754Z,4.83
2018-06-11T20:59:57.426Z,6.07
2018-06-11T21:02:25.105Z,6.63
2018-06-11T21:04:52.771Z,4.90
2018-06-11T21:07:20.455Z,4.70
2018-06-11T21:09:47.989Z,4.83
2018-06-11T21:12:16.690Z,4.97
2018-06-11T21:14:44.330Z,4.10
2018-06-11T21:17:12.068Z,4.13
2018-06-11T21:19:39.743Z,3.77
2018-06-11T21:22:07.317Z,6.53
2018-06-11T21:24:34.892Z,4.87
2018-06-11T21:27:02.555Z,5.07
2018-06-11T21:29:30.144Z,5.57
2018-06-11T21:31:57.776Z,5.00
2018-06-11T21:34:25.315Z,5.13
2018-06-11T21:36:52.840Z,4.73
2018-06-11T21:39:20.391Z,4.83
2018-06-11T21:41:47.920Z,5.53
2018-06-11T21:44:15.685Z,5.23
2018-06-11T21:46:43.233Z,4.80
2018-06-11T21:49:10.763Z,5.20
2018-06-11T21:51:38.315Z,5.53
2018-06-11T21:54:05.932Z,5.00
2018-06-11T21:56:33.599Z,4.37
2018-06-11T21:59:01.303Z,5.80
2018-06-11T22:01:28.892Z,3.50
2018-06-11T22:03:56.640Z,3.63
2018-06-11T22:06:24.054Z,4.73
2018-06-11T22:08:51.656Z,4.87
2018-06-11T22:11:19.246Z,4.17
2018-06-11T22:13:46.943Z,6.03
2018-06-11T22:16:14.501Z,4.07
2018-06-11T22:18:42.072Z,6.03
2018-06-11T22:21:09.744Z,5.77
2018-06-11T22:23:37.300Z,8.87
2018-06-11T22:26:04.883Z,4.90
2018-06-11T22:28:32.492Z,5.07
2018-06-11T22:31:01.207Z,5.40
2018-06-11T22:33:28.745Z,4.83
2018-06-11T22:35:56.345Z,5.70
2018-06-11T22:38:23.948Z,5.67
2018-06-11T22:40:51.539Z,7.23
2018-06-11T22:43:19.138Z,6.83
2018-06-11T22:45:46.715Z,5.63
2018-06-11T22:48:14.315Z,4.40
2018-06-11T22:50:41.908Z,7.87
2018-06-11T22:53:09.448Z,4.23
2018-06-11T22:55:37.065Z,5.73
2018-06-11T22:58:04.756Z,4.90
2018-06-11T23:00:32.644Z,5.00
2018-06-11T23:03:00.268Z,4.17
2018-06-11T23:05:27.976Z,6.60
2018-06-11T23:07:55.649Z,4.57
2018-06-11T23:10:23.306Z,5.53
2018-06-11T23:12:50.850Z,4.00
2018-06-11T23:15:18.477Z,8.13
2018-06-11T23:17:46.175Z,4.67
2018-06-11T23:20:13.864Z,4.17
2018-06-11T23:22:41.434Z,4.20
2018-06-11T23:25:08.971Z,5.10
2018-06-11T23:27:36.526Z,5.03
2018-06-11T23:30:04.273Z,4.93
2018-06-11T23:32:31.833Z,4.20
2018-06-11T23:34:59.381Z,5.10
2018-06-11T23:37:26.930Z,7.37
2018-06-11T23:39:54.510Z,4.23
2018-06-11T23:42:22.141Z,5.37
2018-06-11T23:44:49.708Z,5.67
2018-06-11T23:47:17.260Z,4.97
2018-06-11T23:49:44.820Z,5.93
2018-06-11T23:52:12.439Z,5.50
2018-06-11T23:54:40.012Z,4.80
2018-06-11T23:57:07.573Z,5.23
2018-06-11T23:59:35.167Z,5.97
